createdAt,value
2022-10-03T00:01:30.645Z,0
2022-10-03T00:06:48.062Z,0
2022-10-03T00:12:05.261Z,0
2022-10-03T00:17:22.386Z,0
2022-10-03T00:22:42.767Z,0
2022-10-03T00:27:59.862Z,0
2022-10-03T00:33:17.162Z,0
2022-10-03T00:38:34.327Z,0
2022-10-03T00:43:54.194Z,0
2022-10-03T00:49:11.555Z,0
2022-10-03T00:54:28.966Z,0
2022-10-03T00:59:48.157Z,0
2022-10-03T01:05:05.600Z,0
2022-10-03T01:15:47.863Z,0
2022-10-03T01:21:05.043Z,0
2022-10-03T01:26:25.353Z,0
2022-10-03T01:31:43.259Z,0
2022-10-03T01:37:01.517Z,0
2022-10-03T01:42:18.663Z,0
2022-10-03T01:47:36.018Z,0
2022-10-03T01:52:53.115Z,0
2022-10-03T01:58:12.642Z,0
2022-10-03T02:03:29.952Z,0
2022-10-03T02:08:47.081Z,0
2022-10-03T02:14:10.250Z,0
2022-10-03T02:19:27.638Z,0
2022-10-03T02:24:45.178Z,0
2022-10-03T02:30:02.450Z,0
2022-10-03T02:35:19.871Z,0
2022-10-03T02:40:37.064Z,0
2022-10-03T02:45:54.444Z,0
2022-10-03T02:51:11.975Z,0
2022-10-03T02:56:29.290Z,0
2022-10-03T03:01:46.686Z,0
2022-10-03T03:12:54.111Z,0
2022-10-03T03:18:14.047Z,0
2022-10-03T03:23:31.261Z,0
2022-10-03T03:28:50.563Z,0
2022-10-03T03:34:11.033Z,0
2022-10-03T03:39:28.238Z,0
2022-10-03T03:44:45.631Z,0
2022-10-03T03:50:02.936Z,0
2022-10-03T03:55:20.200Z,0
2022-10-03T04:00:37.585Z,0
2022-10-03T04:06:12.078Z,0
2022-10-03T04:11:30.084Z,0
2022-10-03T04:16:49.951Z,0
2022-10-03T04:22:07.387Z,0
2022-10-03T04:27:27.655Z,0
2022-10-03T04:32:45.051Z,0
2022-10-03T04:38:02.307Z,0
2022-10-03T04:43:19.562Z,0
2022-10-03T04:48:36.884Z,0
2022-10-03T04:53:59.938Z,0
2022-10-03T04:59:17.259Z,0
2022-10-03T05:04:34.825Z,0
2022-10-03T05:15:12.567Z,0
2022-10-03T05:20:29.789Z,1.4
2022-10-03T05:31:04.093Z,92.1
2022-10-03T05:36:27.049Z,166.3
2022-10-03T05:41:44.073Z,262.9
2022-10-03T05:47:01.018Z,383.8
2022-10-03T05:52:25.513Z,540.4
2022-10-03T05:57:43.128Z,706.2
2022-10-03T06:03:00.152Z,985
2022-10-03T06:08:17.935Z,1324.2
2022-10-03T06:13:34.832Z,1344.6
2022-10-03T06:18:51.903Z,1827.5
2022-10-03T06:24:09.091Z,1795.4
2022-10-03T06:29:26.255Z,1901.7
2022-10-03T06:34:50.682Z,2260
2022-10-03T06:40:09.985Z,3273.8
2022-10-03T06:45:30.771Z,4018.3
2022-10-03T06:56:05.204Z,3652.9
2022-10-03T07:01:22.220Z,5228.8
2022-10-03T07:06:39.439Z,4625
2022-10-03T07:11:56.442Z,5110
2022-10-03T07:17:13.515Z,6210
2022-10-03T07:22:31.349Z,5951.7
2022-10-03T07:27:51.686Z,6299.6
2022-10-03T07:33:08.689Z,8253.3
2022-10-03T07:38:29.393Z,6397.5
2022-10-03T07:43:46.175Z,8876.2
2022-10-03T07:54:32.297Z,7210.8
2022-10-03T07:59:49.264Z,9259.6
2022-10-03T08:05:07.599Z,10445
2022-10-03T08:15:41.452Z,9748.7
2022-10-03T08:20:58.498Z,7916.3
2022-10-03T08:26:15.556Z,13162.9
2022-10-03T08:37:01.152Z,29040
2022-10-03T08:42:19.188Z,14149.2
2022-10-03T08:47:35.259Z,11007.9
2022-10-03T08:52:54.002Z,10313.3
2022-10-03T09:03:40.582Z,23413.3
2022-10-03T09:14:19.391Z,9335.8
2022-10-03T09:19:36.893Z,18371.7
2022-10-03T09:24:55.480Z,18712.9
2022-10-03T09:35:30.107Z,20272.5
2022-10-03T09:40:51.311Z,19742.9
2022-10-03T09:46:10.980Z,24399.6
2022-10-03T09:51:28.727Z,16052.9
2022-10-03T09:56:44.678Z,6595.4
2022-10-03T10:01:59.301Z,6869.2
2022-10-03T10:07:18.929Z,10418.3
2022-10-03T10:13:14.377Z,27457.5
2022-10-03T10:18:34.349Z,33328.3
2022-10-03T10:23:59.440Z,25114.6
2022-10-03T10:35:06.944Z,25688.3
2022-10-03T10:40:30.962Z,23500.8
2022-10-03T10:51:16.946Z,18913.3
2022-10-03T10:56:32.595Z,5440.4
2022-10-03T11:01:48.049Z,4997.1
2022-10-03T11:07:04.263Z,6068.3
2022-10-03T11:17:46.634Z,19159.6
2022-10-03T11:23:05.694Z,19805
2022-10-03T11:28:42.178Z,22915.4
2022-10-03T11:34:00.608Z,21820
2022-10-03T11:44:38.368Z,7012.1
2022-10-03T11:50:15.190Z,7779.2
2022-10-03T11:55:34.269Z,25084.2
2022-10-03T12:06:16.227Z,17207.9
2022-10-03T12:11:33.269Z,15991.2
2022-10-03T12:16:48.874Z,7309.6
2022-10-03T12:22:04.791Z,7577.5
2022-10-03T14:35:10.919Z,3473.3
2022-10-03T14:40:27.028Z,5044.6
2022-10-03T14:45:43.995Z,7258.7
2022-10-03T14:51:01.900Z,7145
2022-10-03T14:56:18.858Z,6428.3
2022-10-03T15:06:52.387Z,5814.6
2022-10-03T15:12:09.553Z,6109.6
2022-10-03T15:17:28.956Z,5774.2
2022-10-03T15:22:45.859Z,5601.7
2022-10-03T15:28:02.843Z,4996.2
2022-10-03T15:33:19.772Z,4418.8
2022-10-03T15:38:36.383Z,3969.6
2022-10-03T15:43:53.316Z,3549.2
2022-10-03T15:49:10.105Z,3054.6
2022-10-03T15:54:27.098Z,2777.1
2022-10-03T15:59:43.967Z,2712.5
2022-10-03T16:05:00.898Z,2870.8
2022-10-03T16:10:20.261Z,2514.2
2022-10-03T16:15:37.266Z,2003.8
2022-10-03T16:20:56.601Z,1644.2
2022-10-03T16:26:13.780Z,1362.1
2022-10-03T16:31:30.622Z,1339.2
2022-10-03T16:36:47.729Z,1120.8
2022-10-03T16:42:04.726Z,843.7
2022-10-03T16:47:21.723Z,625
2022-10-03T16:52:40.370Z,430.4
2022-10-03T16:57:57.485Z,296.7
2022-10-03T17:03:14.258Z,209.2
2022-10-03T17:08:41.498Z,135
2022-10-03T17:13:59.097Z,76.2
2022-10-03T17:19:15.807Z,37.9
2022-10-03T17:24:32.484Z,16.7
2022-10-03T17:29:50.614Z,6.8
2022-10-03T17:40:30.456Z,0.6
2022-10-03T17:45:47.987Z,0.1
2022-10-03T17:56:26.743Z,0
2022-10-03T18:01:44.782Z,0
2022-10-03T18:07:02.168Z,0
2022-10-03T18:12:19.322Z,0
2022-10-03T18:17:46.389Z,0
2022-10-03T18:23:03.740Z,0
2022-10-03T18:28:21.117Z,0
2022-10-03T18:33:38.458Z,0
2022-10-03T18:38:55.745Z,0
2022-10-03T18:49:33.777Z,0
2022-10-03T18:56:08.939Z,0
2022-10-03T19:01:27.136Z,0
2022-10-03T19:06:44.274Z,0
2022-10-03T19:17:18.928Z,0
2022-10-03T19:22:36.164Z,0
2022-10-03T19:27:53.572Z,0
2022-10-03T19:33:10.884Z,0
2022-10-03T19:38:28.423Z,0
2022-10-03T19:43:45.631Z,0
2022-10-03T19:49:02.927Z,0
2022-10-03T19:54:20.187Z,0
2022-10-03T19:59:37.583Z,0
2022-10-03T20:04:54.790Z,0
2022-10-03T20:10:12.236Z,0
2022-10-03T20:15:29.654Z,0
2022-10-03T20:20:55.962Z,0
2022-10-03T20:26:13.340Z,0
2022-10-03T20:31:30.997Z,0
2022-10-03T20:36:48.302Z,0
2022-10-03T20:42:05.448Z,0
2022-10-03T20:47:22.931Z,0
2022-10-03T20:52:40.246Z,0
2022-10-03T20:57:57.738Z,0
2022-10-03T21:03:14.977Z,0
2022-10-03T21:08:32.206Z,0
2022-10-03T21:13:49.765Z,0
2022-10-03T21:19:07.278Z,0
2022-10-03T21:24:24.754Z,0
2022-10-03T21:29:42.020Z,0
2022-10-03T21:34:59.232Z,0
2022-10-03T21:40:16.464Z,0
2022-10-03T21:45:33.719Z,0
2022-10-03T21:50:51.148Z,0
2022-10-03T21:56:09.180Z,0
2022-10-03T22:01:27.036Z,0
2022-10-03T22:06:44.434Z,0
2022-10-03T22:12:01.703Z,0
2022-10-03T22:17:19.489Z,0
2022-10-03T22:22:36.666Z,0
2022-10-03T22:27:54.078Z,0
2022-10-03T22:33:11.529Z,0
2022-10-03T22:38:28.991Z,0
2022-10-03T22:43:46.329Z,0
2022-10-03T22:49:03.665Z,0
2022-10-03T22:54:20.940Z,0
2022-10-03T22:59:38.449Z,0
2022-10-03T23:04:55.690Z,0
2022-10-03T23:10:12.934Z,0
2022-10-03T23:15:30.209Z,0
2022-10-03T23:20:47.640Z,0
2022-10-03T23:26:05.008Z,0
2022-10-03T23:31:22.342Z,0
2022-10-03T23:36:39.769Z,0
2022-10-03T23:41:57.107Z,0
2022-10-03T23:47:14.379Z,0
2022-10-03T23:52:31.585Z,0
2022-10-03T23:57:50.358Z,0
